sensor_id;sensor_type;location;lat;lon;timestamp;pressure;altitude;pressure_sealevel;temperature;humidity
4972;BME280;2501;51.214;6.768;2023-07-30T00:01:44;100696.34;;;16.52;100.00
4972;BME280;2501;51.214;6.768;2023-07-30T00:04:15;100691.09;;;16.49;100.00
4972;BME280;2501;51.214;6.768;2023-07-30T00:06:44;100691.25;;;16.41;100.00
4972;BME280;2501;51.214;6.768;2023-07-30T00:09:12;100689.63;;;16.32;100.00
4972;BME280;2501;51.214;6.768;2023-07-30T00:11:40;100692.34;;;16.28;100.00
4972;BME280;2501;51.214;6.768;2023-07-30T00:14:09;100689.00;;;16.20;100.00
4972;BME280;2501;51.214;6.768;2023-07-30T00:16:37;100686.03;;;16.36;100.00
4972;BME280;2501;51.214;6.768;2023-07-30T00:19:06;100687.19;;;16.23;100.00
4972;BME280;2501;51.214;6.768;2023-07-30T00:21:37;100689.88;;;16.20;100.00
4972;BME280;2501;51.214;6.768;2023-07-30T00:24:05;100685.41;;;16.24;100.00
4972;BME280;2501;51.214;6.768;2023-07-30T00:26:34;100690.75;;;16.21;100.00
4972;BME280;2501;51.214;6.768;2023-07-30T00:29:03;100699.59;;;16.18;100.00
4972;BME280;2501;51.214;6.768;2023-07-30T00:31:32;100697.03;;;16.14;100.00
4972;BME280;2501;51.214;6.768;2023-07-30T00:34:00;100702.44;;;16.09;100.00
4972;BME280;2501;51.214;6.768;2023-07-30T00:36:28;100702.53;;;16.03;100.00
4972;BME280;2501;51.214;6.768;2023-07-30T00:38:59;100695.69;;;15.91;100.00
4972;BME280;2501;51.214;6.768;2023-07-30T00:41:28;100701.78;;;15.93;100.00
4972;BME280;2501;51.214;6.768;2023-07-30T00:43:56;100696.63;;;15.87;100.00
4972;BME280;2501;51.214;6.768;2023-07-30T00:46:25;100702.03;;;15.78;100.00
4972;BME280;2501;51.214;6.768;2023-07-30T00:48:53;100698.50;;;15.79;100.00
4972;BME280;2501;51.214;6.768;2023-07-30T00:51:22;100698.47;;;15.82;100.00
4972;BME280;2501;51.214;6.768;2023-07-30T00:53:52;100700.28;;;15.79;100.00
4972;BME280;2501;51.214;6.768;2023-07-30T00:56:23;100702.00;;;15.81;100.00
4972;BME280;2501;51.214;6.768;2023-07-30T00:58:52;100697.53;;;15.85;100.00
4972;BME280;2501;51.214;6.768;2023-07-30T01:01:20;100701.09;;;15.82;100.00
4972;BME280;2501;51.214;6.768;2023-07-30T01:03:49;100704.66;;;15.80;100.00
4972;BME280;2501;51.214;6.768;2023-07-30T01:06:18;100709.84;;;15.87;100.00
4972;BME280;2501;51.214;6.768;2023-07-30T01:08:48;100717.63;;;15.95;100.00
4972;BME280;2501;51.214;6.768;2023-07-30T01:11:17;100717.59;;;15.98;100.00
4972;BME280;2501;51.214;6.768;2023-07-30T01:13:49;100706.13;;;15.97;100.00
4972;BME280;2501;51.214;6.768;2023-07-30T01:16:18;100718.50;;;15.97;100.00
4972;BME280;2501;51.214;6.768;2023-07-30T01:18:47;100720.16;;;16.02;100.00
4972;BME280;2501;51.214;6.768;2023-07-30T01:21:18;100719.19;;;16.08;100.00
4972;BME280;2501;51.214;6.768;2023-07-30T01:23:46;100725.38;;;16.07;100.00
4972;BME280;2501;51.214;6.768;2023-07-30T01:26:19;100727.13;;;16.08;100.00
4972;BME280;2501;51.214;6.768;2023-07-30T01:28:49;100725.38;;;16.07;100.00
4972;BME280;2501;51.214;6.768;2023-07-30T01:31:20;100728.81;;;16.12;100.00
4972;BME280;2501;51.214;6.768;2023-07-30T01:33:52;100730.53;;;16.15;100.00
4972;BME280;2501;51.214;6.768;2023-07-30T01:36:25;100732.16;;;16.23;100.00
4972;BME280;2501;51.214;6.768;2023-07-30T01:38:54;100734.78;;;16.25;100.00
4972;BME280;2501;51.214;6.768;2023-07-30T01:41:24;100732.16;;;16.23;100.00
4972;BME280;2501;51.214;6.768;2023-07-30T01:43:53;100736.69;;;16.17;100.00
4972;BME280;2501;51.214;6.768;2023-07-30T01:46:22;100740.09;;;16.23;100.00
4972;BME280;2501;51.214;6.768;2023-07-30T01:48:50;100744.59;;;16.18;100.00
4972;BME280;2501;51.214;6.768;2023-07-30T01:51:19;100741.16;;;16.12;100.00
4972;BME280;2501;51.214;6.768;2023-07-30T01:53:49;100730.78;;;16.01;100.00
4972;BME280;2501;51.214;6.768;2023-07-30T01:56:18;100728.19;;;15.96;100.00
4972;BME280;2501;51.214;6.768;2023-07-30T01:58:46;100741.34;;;16.02;100.00
4972;BME280;2501;51.214;6.768;2023-07-30T02:01:15;100744.91;;;16.00;100.00
4972;BME280;2501;51.214;6.768;2023-07-30T02:03:44;100749.19;;;16.07;100.00
4972;BME280;2501;51.214;6.768;2023-07-30T02:06:12;100743.94;;;16.06;100.00
4972;BME280;2501;51.214;6.768;2023-07-30T02:08:40;100747.47;;;16.05;100.00
4972;BME280;2501;51.214;6.768;2023-07-30T02:11:11;100740.69;;;15.88;100.00
4972;BME280;2501;51.214;6.768;2023-07-30T02:13:40;100739.91;;;15.80;100.00
4972;BME280;2501;51.214;6.768;2023-07-30T02:16:08;100740.06;;;15.73;100.00
4972;BME280;2501;51.214;6.768;2023-07-30T02:18:36;100743.59;;;15.72;100.00
4972;BME280;2501;51.214;6.768;2023-07-30T02:21:05;100742.59;;;15.77;100.00
4972;BME280;2501;51.214;6.768;2023-07-30T02:23:33;100746.03;;;15.84;100.00
4972;BME280;2501;51.214;6.768;2023-07-30T02:26:02;100739.84;;;15.86;100.00
4972;BME280;2501;51.214;6.768;2023-07-30T02:28:33;100734.59;;;15.82;100.00
4972;BME280;2501;51.214;6.768;2023-07-30T02:31:01;100739.16;;;15.74;100.00
4972;BME280;2501;51.214;6.768;2023-07-30T02:33:29;100737.50;;;15.65;100.00
4972;BME280;2501;51.214;6.768;2023-07-30T02:35:58;100734.94;;;15.60;100.00
4972;BME280;2501;51.214;6.768;2023-07-30T02:38:26;100739.41;;;15.58;100.00
4972;BME280;2501;51.214;6.768;2023-07-30T02:40:54;100746.47;;;15.55;100.00
4972;BME280;2501;51.214;6.768;2023-07-30T02:43:23;100743.88;;;15.50;100.00
4972;BME280;2501;51.214;6.768;2023-07-30T02:45:54;100744.81;;;15.46;100.00
4972;BME280;2501;51.214;6.768;2023-07-30T02:48:22;100743.91;;;15.47;100.00
4972;BME280;2501;51.214;6.768;2023-07-30T02:50:51;100744.81;;;15.46;100.00
4972;BME280;2501;51.214;6.768;2023-07-30T02:53:19;100748.38;;;15.44;100.00
4972;BME280;2501;51.214;6.768;2023-07-30T02:55:48;100755.41;;;15.43;100.00
4972;BME280;2501;51.214;6.768;2023-07-30T02:58:16;100759.06;;;15.36;100.00
4972;BME280;2501;51.214;6.768;2023-07-30T03:00:44;100752.88;;;15.39;100.00
4972;BME280;2501;51.214;6.768;2023-07-30T03:03:16;100756.41;;;15.36;100.00
4972;BME280;2501;51.214;6.768;2023-07-30T03:05:44;100757.31;;;15.33;100.00
4972;BME280;2501;51.214;6.768;2023-07-30T03:08:13;100761.78;;;15.30;100.00
4972;BME280;2501;51.214;6.768;2023-07-30T03:10:41;100760.91;;;15.29;100.00
4972;BME280;2501;51.214;6.768;2023-07-30T03:13:09;100760.16;;;15.20;100.00
4972;BME280;2501;51.214;6.768;2023-07-30T03:15:38;100768.13;;;15.17;100.00
4972;BME280;2501;51.214;6.768;2023-07-30T03:18:06;100754.91;;;15.15;100.00
4972;BME280;2501;51.214;6.768;2023-07-30T03:20:37;100763.78;;;15.10;100.00
4972;BME280;2501;51.214;6.768;2023-07-30T03:23:06;100761.28;;;15.01;100.00
4972;BME280;2501;51.214;6.768;2023-07-30T03:25:34;100758.53;;;15.07;100.00
4972;BME280;2501;51.214;6.768;2023-07-30T03:28:03;100765.66;;;15.03;100.00
4972;BME280;2501;51.214;6.768;2023-07-30T03:30:31;100757.66;;;15.08;100.00
4972;BME280;2501;51.214;6.768;2023-07-30T03:32:59;100774.38;;;15.07;100.00
4972;BME280;2501;51.214;6.768;2023-07-30T03:35:28;100770.81;;;15.12;100.00
4972;BME280;2501;51.214;6.768;2023-07-30T03:37:59;100775.25;;;15.09;100.00
4972;BME280;2501;51.214;6.768;2023-07-30T03:40:28;100776.94;;;15.14;100.00
4972;BME280;2501;51.214;6.768;2023-07-30T03:42:57;100776.03;;;15.18;100.00
4972;BME280;2501;51.214;6.768;2023-07-30T03:45:25;100780.38;;;15.22;100.00
4972;BME280;2501;51.214;6.768;2023-07-30T03:47:53;100781.16;;;15.29;100.00
4972;BME280;2501;51.214;6.768;2023-07-30T03:50:22;100787.34;;;15.26;100.00
4972;BME280;2501;51.214;6.768;2023-07-30T03:52:50;100786.44;;;15.29;100.00
4972;BME280;2501;51.214;6.768;2023-07-30T03:55:21;100782.94;;;15.27;100.00
4972;BME280;2501;51.214;6.768;2023-07-30T03:57:49;100780.19;;;15.38;100.00
4972;BME280;2501;51.214;6.768;2023-07-30T04:00:18;100775.75;;;15.40;100.00
4972;BME280;2501;51.214;6.768;2023-07-30T04:02:46;100778.22;;;15.52;100.00
4972;BME280;2501;51.214;6.768;2023-07-30T04:05:15;100779.88;;;15.60;100.00
4972;BME280;2501;51.214;6.768;2023-07-30T04:07:43;100775.41;;;15.65;100.00
4972;BME280;2501;51.214;6.768;2023-07-30T04:10:11;100781.44;;;15.75;99.85
4972;BME280;2501;51.214;6.768;2023-07-30T04:12:42;100770.38;;;16.07;98.59
4972;BME280;2501;51.214;6.768;2023-07-30T04:15:11;100757.25;;;16.50;95.95
4972;BME280;2501;51.214;6.768;2023-07-30T04:17:40;100771.63;;;15.83;97.35
4972;BME280;2501;51.214;6.768;2023-07-30T04:20:09;100779.78;;;15.68;99.17
4972;BME280;2501;51.214;6.768;2023-07-30T04:22:38;100776.25;;;15.69;100.00
4972;BME280;2501;51.214;6.768;2023-07-30T04:25:08;100782.44;;;15.66;100.00
4972;BME280;2501;51.214;6.768;2023-07-30T04:27:36;100786.81;;;15.69;100.00
4972;BME280;2501;51.214;6.768;2023-07-30T04:30:08;100792.97;;;15.71;100.00
4972;BME280;2501;51.214;6.768;2023-07-30T04:32:37;100784.13;;;15.74;100.00
4972;BME280;2501;51.214;6.768;2023-07-30T04:35:06;100791.22;;;15.69;100.00
4972;BME280;2501;51.214;6.768;2023-07-30T04:37:34;100790.44;;;15.60;100.00
4972;BME280;2501;51.214;6.768;2023-07-30T04:40:04;100795.91;;;15.47;100.00
4972;BME280;2501;51.214;6.768;2023-07-30T04:42:32;100795.81;;;15.53;100.00
4972;BME280;2501;51.214;6.768;2023-07-30T04:45:01;100802.78;;;15.61;100.00
4972;BME280;2501;51.214;6.768;2023-07-30T04:47:32;100799.25;;;15.61;100.00
4972;BME280;2501;51.214;6.768;2023-07-30T04:50:00;100806.16;;;15.74;100.00
4972;BME280;2501;51.214;6.768;2023-07-30T04:52:28;100803.34;;;15.85;100.00
4972;BME280;2501;51.214;6.768;2023-07-30T04:54:57;100801.59;;;15.84;100.00
4972;BME280;2501;51.214;6.768;2023-07-30T04:57:25;100800.09;;;15.64;100.00
4972;BME280;2501;51.214;6.768;2023-07-30T04:59:54;100796.63;;;15.59;100.00
4972;BME280;2501;51.214;6.768;2023-07-30T05:02:22;100803.75;;;15.57;100.00
4972;BME280;2501;51.214;6.768;2023-07-30T05:04:55;100805.44;;;15.60;100.00
4972;BME280;2501;51.214;6.768;2023-07-30T05:07:23;100803.56;;;15.70;100.00
4972;BME280;2501;51.214;6.768;2023-07-30T05:09:52;100801.97;;;15.58;100.00
4972;BME280;2501;51.214;6.768;2023-07-30T05:12:20;100803.53;;;15.71;100.00
4972;BME280;2501;51.214;6.768;2023-07-30T05:14:49;100801.81;;;15.67;100.00
4972;BME280;2501;51.214;6.768;2023-07-30T05:17:17;100801.78;;;15.70;100.00
4972;BME280;2501;51.214;6.768;2023-07-30T05:19:45;100805.56;;;15.49;100.00
4972;BME280;2501;51.214;6.768;2023-07-30T05:22:16;100802.09;;;15.44;100.00
4972;BME280;2501;51.214;6.768;2023-07-30T05:24:45;100804.53;;;15.61;100.00
4972;BME280;2501;51.214;6.768;2023-07-30T05:27:13;100805.31;;;15.71;99.84
4972;BME280;2501;51.214;6.768;2023-07-30T05:29:42;100805.59;;;15.48;100.00
4972;BME280;2501;51.214;6.768;2023-07-30T05:32:10;100800.63;;;15.89;100.00
4972;BME280;2501;51.214;6.768;2023-07-30T05:34:39;100806.03;;;15.80;98.23
4972;BME280;2501;51.214;6.768;2023-07-30T05:37:07;100806.47;;;15.47;99.55
4972;BME280;2501;51.214;6.768;2023-07-30T05:39:38;100803.16;;;15.32;100.00
4972;BME280;2501;51.214;6.768;2023-07-30T05:42:07;100805.53;;;15.52;100.00
4972;BME280;2501;51.214;6.768;2023-07-30T05:44:35;100810.16;;;15.37;100.00
4972;BME280;2501;51.214;6.768;2023-07-30T05:47:04;100815.06;;;15.65;100.00
4972;BME280;2501;51.214;6.768;2023-07-30T05:49:32;100816.50;;;15.88;100.00
4972;BME280;2501;51.214;6.768;2023-07-30T05:52:01;100816.63;;;15.79;100.00
4972;BME280;2501;51.214;6.768;2023-07-30T05:54:29;100815.34;;;16.07;99.69
4972;BME280;2501;51.214;6.768;2023-07-30T05:57:00;100807.66;;;15.90;98.34
4972;BME280;2501;51.214;6.768;2023-07-30T05:59:28;100813.97;;;15.80;98.73
4972;BME280;2501;51.214;6.768;2023-07-30T06:01:57;100816.50;;;15.89;98.60
4972;BME280;2501;51.214;6.768;2023-07-30T06:04:29;100822.00;;;15.76;99.49
4972;BME280;2501;51.214;6.768;2023-07-30T06:06:59;100815.50;;;15.95;98.71
4972;BME280;2501;51.214;6.768;2023-07-30T06:09:28;100821.00;;;16.38;96.38
4972;BME280;2501;51.214;6.768;2023-07-30T06:11:57;100824.47;;;15.86;96.11
4972;BME280;2501;51.214;6.768;2023-07-30T06:14:28;100826.84;;;16.05;97.26
4972;BME280;2501;51.214;6.768;2023-07-30T06:16:56;100824.28;;;15.98;96.97
4972;BME280;2501;51.214;6.768;2023-07-30T06:19:25;100816.06;;;16.15;95.71
4972;BME280;2501;51.214;6.768;2023-07-30T06:21:53;100828.19;;;16.30;95.47
4972;BME280;2501;51.214;6.768;2023-07-30T06:24:22;100828.81;;;16.46;93.30
4972;BME280;2501;51.214;6.768;2023-07-30T06:26:50;100836.41;;;16.12;94.37
4972;BME280;2501;51.214;6.768;2023-07-30T06:29:18;100840.97;;;16.04;95.45
4972;BME280;2501;51.214;6.768;2023-07-30T06:31:50;100838.94;;;16.21;95.32
4972;BME280;2501;51.214;6.768;2023-07-30T06:34:18;100840.88;;;16.10;95.22
4972;BME280;2501;51.214;6.768;2023-07-30T06:36:46;100832.88;;;16.13;95.83
4972;BME280;2501;51.214;6.768;2023-07-30T06:39:15;100832.88;;;16.66;95.07
4972;BME280;2501;51.214;6.768;2023-07-30T06:41:43;100829.94;;;16.31;94.26
4972;BME280;2501;51.214;6.768;2023-07-30T06:44:12;100817.81;;;16.72;93.83
4972;BME280;2501;51.214;6.768;2023-07-30T06:46:41;100822.06;;;17.25;90.27
4972;BME280;2501;51.214;6.768;2023-07-30T06:49:12;100816.16;;;17.12;87.65
4972;BME280;2501;51.214;6.768;2023-07-30T06:51:40;100825.16;;;17.47;85.87
4972;BME280;2501;51.214;6.768;2023-07-30T06:54:08;100829.97;;;17.28;85.61
4972;BME280;2501;51.214;6.768;2023-07-30T06:56:37;100825.38;;;16.91;87.09
4972;BME280;2501;51.214;6.768;2023-07-30T06:59:05;100833.38;;;17.33;87.17
4972;BME280;2501;51.214;6.768;2023-07-30T07:01:34;100846.72;;;16.82;89.01
4972;BME280;2501;51.214;6.768;2023-07-30T07:04:02;100841.41;;;16.84;90.35
4972;BME280;2501;51.214;6.768;2023-07-30T07:06:33;100842.06;;;17.41;86.73
4972;BME280;2501;51.214;6.768;2023-07-30T07:09:02;100838.34;;;17.07;85.92
4972;BME280;2501;51.214;6.768;2023-07-30T07:11:31;100843.44;;;17.16;87.73
4972;BME280;2501;51.214;6.768;2023-07-30T07:13:59;100840.84;;;17.14;87.04
4972;BME280;2501;51.214;6.768;2023-07-30T07:16:28;100840.53;;;17.29;86.78
4972;BME280;2501;51.214;6.768;2023-07-30T07:18:56;100846.56;;;17.36;87.07
4972;BME280;2501;51.214;6.768;2023-07-30T07:21:25;100847.41;;;17.83;84.75
4972;BME280;2501;51.214;6.768;2023-07-30T07:23:56;100847.41;;;17.83;83.38
4972;BME280;2501;51.214;6.768;2023-07-30T07:26:25;100850.97;;;17.80;83.30
4972;BME280;2501;51.214;6.768;2023-07-30T07:28:55;100852.38;;;17.96;83.39
4972;BME280;2501;51.214;6.768;2023-07-30T07:31:24;100856.06;;;17.89;82.97
4972;BME280;2501;51.214;6.768;2023-07-30T07:33:52;100858.53;;;17.98;82.28
4972;BME280;2501;51.214;6.768;2023-07-30T07:36:21;100858.53;;;17.55;83.96
4972;BME280;2501;51.214;6.768;2023-07-30T07:38:47;100856.81;;;17.53;84.70
4972;BME280;2501;51.214;6.768;2023-07-30T07:41:18;100862.56;;;18.15;83.57
4972;BME280;2501;51.214;6.768;2023-07-30T07:43:47;100862.69;;;18.08;81.14
4972;BME280;2501;51.214;6.768;2023-07-30T07:46:18;100867.44;;;18.33;80.42
4972;BME280;2501;51.214;6.768;2023-07-30T07:48:46;100856.16;;;18.60;78.83
4972;BME280;2501;51.214;6.768;2023-07-30T07:51:15;100863.22;;;17.86;82.28
4972;BME280;2501;51.214;6.768;2023-07-30T07:53:43;100866.88;;;18.19;82.18
4972;BME280;2501;51.214;6.768;2023-07-30T07:56:12;100858.06;;;18.54;79.27
4972;BME280;2501;51.214;6.768;2023-07-30T07:58:43;100863.34;;;18.55;79.04
4972;BME280;2501;51.214;6.768;2023-07-30T08:01:11;100867.56;;;18.65;77.73
4972;BME280;2501;51.214;6.768;2023-07-30T08:03:39;100872.56;;;17.62;82.22
4972;BME280;2501;51.214;6.768;2023-07-30T08:06:08;100871.56;;;18.07;82.82
4972;BME280;2501;51.214;6.768;2023-07-30T08:08:36;100872.00;;;18.28;80.33
4972;BME280;2501;51.214;6.768;2023-07-30T08:11:09;100866.31;;;18.06;80.54
4972;BME280;2501;51.214;6.768;2023-07-30T08:13:43;100873.88;;;18.23;80.65
4972;BME280;2501;51.214;6.768;2023-07-30T08:16:11;100875.44;;;18.31;81.27
4972;BME280;2501;51.214;6.768;2023-07-30T08:18:40;100859.25;;;18.77;78.12
4972;BME280;2501;51.214;6.768;2023-07-30T08:21:08;100853.44;;;18.63;78.72
4972;BME280;2501;51.214;6.768;2023-07-30T08:23:37;100865.34;;;18.46;79.77
4972;BME280;2501;51.214;6.768;2023-07-30T08:26:05;100858.91;;;18.19;80.74
4972;BME280;2501;51.214;6.768;2023-07-30T08:28:33;100869.47;;;18.22;81.72
4972;BME280;2501;51.214;6.768;2023-07-30T08:31:05;100869.69;;;18.50;79.01
4972;BME280;2501;51.214;6.768;2023-07-30T08:33:33;100859.22;;;18.79;79.65
4972;BME280;2501;51.214;6.768;2023-07-30T08:36:02;100858.81;;;18.60;78.57
4972;BME280;2501;51.214;6.768;2023-07-30T08:38:30;100861.56;;;19.22;77.00
4972;BME280;2501;51.214;6.768;2023-07-30T08:40:59;100860.16;;;19.41;74.13
4972;BME280;2501;51.214;6.768;2023-07-30T08:43:28;100865.31;;;19.47;74.28
4972;BME280;2501;51.214;6.768;2023-07-30T08:45:57;100864.09;;;19.59;72.99
4972;BME280;2501;51.214;6.768;2023-07-30T08:48:28;100870.13;;;19.66;71.97
4972;BME280;2501;51.214;6.768;2023-07-30T08:50:57;100874.84;;;18.91;75.75
4972;BME280;2501;51.214;6.768;2023-07-30T08:53:26;100866.88;;;19.86;72.15
4972;BME280;2501;51.214;6.768;2023-07-30T08:55:55;100873.66;;;19.66;71.66
4972;BME280;2501;51.214;6.768;2023-07-30T08:58:25;100874.84;;;19.24;72.14
4972;BME280;2501;51.214;6.768;2023-07-30T09:00:55;100877.13;;;19.37;72.93
4972;BME280;2501;51.214;6.768;2023-07-30T09:03:29;100885.69;;;19.16;71.31
4972;BME280;2501;51.214;6.768;2023-07-30T09:05:58;100887.84;;;19.02;71.22
4972;BME280;2501;51.214;6.768;2023-07-30T09:08:26;100886.34;;;18.92;73.23
4972;BME280;2501;51.214;6.768;2023-07-30T09:10:55;100891.53;;;18.96;72.63
4972;BME280;2501;51.214;6.768;2023-07-30T09:13:23;100889.66;;;19.01;73.00
4972;BME280;2501;51.214;6.768;2023-07-30T09:15:52;100895.34;;;19.20;71.75
4972;BME280;2501;51.214;6.768;2023-07-30T09:18:20;100901.75;;;18.79;72.27
4972;BME280;2501;51.214;6.768;2023-07-30T09:20:51;100904.88;;;18.59;72.88
4972;BME280;2501;51.214;6.768;2023-07-30T09:23:20;100896.13;;;18.54;73.58
4972;BME280;2501;51.214;6.768;2023-07-30T09:25:48;100895.81;;;18.69;74.28
4972;BME280;2501;51.214;6.768;2023-07-30T09:28:18;100900.09;;;19.07;73.12
4972;BME280;2501;51.214;6.768;2023-07-30T09:30:49;100901.66;;;19.16;71.76
4972;BME280;2501;51.214;6.768;2023-07-30T09:33:18;100900.34;;;19.63;69.30
4972;BME280;2501;51.214;6.768;2023-07-30T09:35:47;100901.16;;;19.95;68.35
4972;BME280;2501;51.214;6.768;2023-07-30T09:38:21;100901.81;;;20.31;66.32
4972;BME280;2501;51.214;6.768;2023-07-30T09:40:52;100908.69;;;20.10;67.10
4972;BME280;2501;51.214;6.768;2023-07-30T09:43:20;100897.13;;;20.11;65.92
4972;BME280;2501;51.214;6.768;2023-07-30T09:45:49;100895.13;;;19.90;66.84
4972;BME280;2501;51.214;6.768;2023-07-30T09:48:18;100894.56;;;20.08;66.73
4972;BME280;2501;51.214;6.768;2023-07-30T09:50:47;100896.81;;;20.22;66.06
4972;BME280;2501;51.214;6.768;2023-07-30T09:53:16;100900.03;;;20.85;63.73
4972;BME280;2501;51.214;6.768;2023-07-30T09:55:47;100892.56;;;20.70;61.59
4972;BME280;2501;51.214;6.768;2023-07-30T09:58:16;100895.53;;;20.61;61.87
4972;BME280;2501;51.214;6.768;2023-07-30T10:00:45;100896.75;;;21.04;59.94
4972;BME280;2501;51.214;6.768;2023-07-30T10:03:15;100889.50;;;20.56;59.99
4972;BME280;2501;51.214;6.768;2023-07-30T10:05:44;100894.63;;;20.34;60.30
4972;BME280;2501;51.214;6.768;2023-07-30T10:08:19;100895.84;;;20.24;61.38
4972;BME280;2501;51.214;6.768;2023-07-30T10:10:54;100884.84;;;20.07;61.60
4972;BME280;2501;51.214;6.768;2023-07-30T10:13:24;100889.91;;;20.14;62.25
4972;BME280;2501;51.214;6.768;2023-07-30T10:15:55;100893.00;;;20.01;63.11
4972;BME280;2501;51.214;6.768;2023-07-30T10:18:33;100889.25;;;20.08;62.38
4972;BME280;2501;51.214;6.768;2023-07-30T10:21:01;100885.31;;;20.47;61.52
4972;BME280;2501;51.214;6.768;2023-07-30T10:23:32;100885.88;;;20.59;59.61
4972;BME280;2501;51.214;6.768;2023-07-30T10:26:11;100887.72;;;20.57;60.99
4972;BME280;2501;51.214;6.768;2023-07-30T10:28:39;100889.09;;;20.42;61.18
4972;BME280;2501;51.214;6.768;2023-07-30T10:31:09;100886.03;;;20.79;60.52
4972;BME280;2501;51.214;6.768;2023-07-30T10:33:47;100892.22;;;20.55;61.52
4972;BME280;2501;51.214;6.768;2023-07-30T10:36:18;100882.75;;;20.72;60.52
4972;BME280;2501;51.214;6.768;2023-07-30T10:38:47;100889.09;;;20.95;59.92
4972;BME280;2501;51.214;6.768;2023-07-30T10:41:20;100883.31;;;21.32;58.65
4972;BME280;2501;51.214;6.768;2023-07-30T10:43:50;100885.03;;;21.58;55.78
4972;BME280;2501;51.214;6.768;2023-07-30T10:46:19;100883.47;;;21.29;55.67
4972;BME280;2501;51.214;6.768;2023-07-30T10:48:48;100885.28;;;21.75;55.22
4972;BME280;2501;51.214;6.768;2023-07-30T10:51:18;100887.47;;;22.54;52.98
4972;BME280;2501;51.214;6.768;2023-07-30T10:53:49;100878.97;;;22.66;51.66
4972;BME280;2501;51.214;6.768;2023-07-30T10:56:22;100883.53;;;21.74;53.79
4972;BME280;2501;51.214;6.768;2023-07-30T10:58:52;100873.94;;;21.68;52.55
4972;BME280;2501;51.214;6.768;2023-07-30T11:01:24;100877.44;;;21.70;53.13
4972;BME280;2501;51.214;6.768;2023-07-30T11:03:53;100872.03;;;22.40;51.29
4972;BME280;2501;51.214;6.768;2023-07-30T11:06:22;100863.75;;;22.46;50.48
4972;BME280;2501;51.214;6.768;2023-07-30T11:08:51;100890.66;;;22.20;51.92
4972;BME280;2501;51.214;6.768;2023-07-30T11:11:22;100877.16;;;22.67;49.49
4972;BME280;2501;51.214;6.768;2023-07-30T11:13:51;100894.03;;;22.47;50.36
4972;BME280;2501;51.214;6.768;2023-07-30T11:16:20;100887.28;;;22.58;49.65
4972;BME280;2501;51.214;6.768;2023-07-30T11:18:48;100890.66;;;22.20;50.82
4972;BME280;2501;51.214;6.768;2023-07-30T11:21:18;100891.91;;;22.55;49.82
4972;BME280;2501;51.214;6.768;2023-07-30T11:23:46;100891.50;;;21.99;51.38
4972;BME280;2501;51.214;6.768;2023-07-30T11:26:16;100896.47;;;22.31;51.26
4972;BME280;2501;51.214;6.768;2023-07-30T11:28:48;100915.47;;;22.00;51.70
4972;BME280;2501;51.214;6.768;2023-07-30T11:31:18;100907.03;;;21.87;52.16
4972;BME280;2501;51.214;6.768;2023-07-30T11:33:48;100921.47;;;21.82;52.72
4972;BME280;2501;51.214;6.768;2023-07-30T11:36:19;100906.69;;;22.42;51.58
4972;BME280;2501;51.214;6.768;2023-07-30T11:38:48;100911.09;;;22.21;50.90
4972;BME280;2501;51.214;6.768;2023-07-30T11:41:18;100914.00;;;21.92;51.61
4972;BME280;2501;51.214;6.768;2023-07-30T11:43:51;100909.13;;;22.26;51.96
4972;BME280;2501;51.214;6.768;2023-07-30T11:46:19;100916.13;;;21.82;53.25
4972;BME280;2501;51.214;6.768;2023-07-30T11:48:52;100910.06;;;22.25;52.76
4972;BME280;2501;51.214;6.768;2023-07-30T11:51:23;100913.59;;;22.26;53.45
4972;BME280;2501;51.214;6.768;2023-07-30T11:53:53;100914.53;;;22.46;51.90
4972;BME280;2501;51.214;6.768;2023-07-30T11:56:23;100923.41;;;21.78;51.89
4972;BME280;2501;51.214;6.768;2023-07-30T11:58:56;100931.31;;;21.81;52.82
4972;BME280;2501;51.214;6.768;2023-07-30T12:01:26;100916.47;;;22.43;51.86
4972;BME280;2501;51.214;6.768;2023-07-30T12:03:56;100923.50;;;22.67;51.67
4972;BME280;2501;51.214;6.768;2023-07-30T12:06:38;100933.81;;;22.33;51.92
4972;BME280;2501;51.214;6.768;2023-07-30T12:09:11;100940.31;;;21.79;51.54
4972;BME280;2501;51.214;6.768;2023-07-30T12:11:50;100954.66;;;22.23;50.81
4972;BME280;2501;51.214;6.768;2023-07-30T12:14:24;100958.91;;;22.05;50.82
4972;BME280;2501;51.214;6.768;2023-07-30T12:16:55;100960.84;;;21.52;50.59
4972;BME280;2501;51.214;6.768;2023-07-30T12:19:24;100955.34;;;21.81;50.81
4972;BME280;2501;51.214;6.768;2023-07-30T12:21:52;100967.63;;;22.10;49.91
4972;BME280;2501;51.214;6.768;2023-07-30T12:24:21;100962.28;;;21.85;49.82
4972;BME280;2501;51.214;6.768;2023-07-30T12:26:50;100959.81;;;21.31;49.61
4972;BME280;2501;51.214;6.768;2023-07-30T12:29:21;100959.34;;;21.45;49.78
4972;BME280;2501;51.214;6.768;2023-07-30T12:31:49;100959.47;;;21.65;47.80
4972;BME280;2501;51.214;6.768;2023-07-30T12:34:19;100961.50;;;21.34;48.51
4972;BME280;2501;51.214;6.768;2023-07-30T12:36:47;100984.41;;;21.41;49.43
4972;BME280;2501;51.214;6.768;2023-07-30T12:39:15;100973.22;;;21.03;50.80
4972;BME280;2501;51.214;6.768;2023-07-30T12:41:44;100963.59;;;21.50;50.59
4972;BME280;2501;51.214;6.768;2023-07-30T12:44:12;100962.03;;;21.45;50.58
4972;BME280;2501;51.214;6.768;2023-07-30T12:46:43;100964.19;;;21.59;50.58
4972;BME280;2501;51.214;6.768;2023-07-30T12:49:12;100957.41;;;21.73;50.79
4972;BME280;2501;51.214;6.768;2023-07-30T12:51:40;100945.25;;;21.65;51.02
4972;BME280;2501;51.214;6.768;2023-07-30T12:54:09;100946.22;;;21.87;50.84
4972;BME280;2501;51.214;6.768;2023-07-30T12:56:38;100936.81;;;21.77;50.94
4972;BME280;2501;51.214;6.768;2023-07-30T12:59:06;100939.75;;;21.21;52.05
4972;BME280;2501;51.214;6.768;2023-07-30T13:01:34;100934.03;;;21.05;52.38
4972;BME280;2501;51.214;6.768;2023-07-30T13:04:06;100934.53;;;21.43;52.58
4972;BME280;2501;51.214;6.768;2023-07-30T13:06:34;100940.00;;;21.38;52.71
4972;BME280;2501;51.214;6.768;2023-07-30T13:09:02;100941.19;;;21.54;52.28
4972;BME280;2501;51.214;6.768;2023-07-30T13:11:31;100937.75;;;21.76;51.79
4972;BME280;2501;51.214;6.768;2023-07-30T13:14:00;100952.00;;;22.23;50.79
4972;BME280;2501;51.214;6.768;2023-07-30T13:16:28;100936.56;;;23.37;48.83
4972;BME280;2501;51.214;6.768;2023-07-30T13:18:57;100939.94;;;23.81;47.64